Time;durP1;ratioP1;P1;durP2;ratioP2;P2;SDS_P1;SDS_P2;PMS_P1;PMS_P2;Temp;Humidity;BMP_temperature;BMP_pressure;BME280_temperature;BME280_humidity;BME280_pressure;Samples;Min_cycle;Max_cycle;Signal;HPM_P1;HPM_P2
2021/09/15 00:00:20;;;;;;;;;;;;;;;;;;5014743;28;20173;-85
2021/09/15 00:02:49;;;;;;;;;;;;;;;;;;5030759;28;19928;-86
2021/09/15 00:05:17;;;;;;;;;;;;;;;;;;5029828;28;19928;-88
2021/09/15 00:07:46;;;;;;;;;;;;;;;;;;5029194;28;19935;-87
2021/09/15 00:10:23;;;;;;;;;;;;;;;;;;5028768;28;19931;-84
2021/09/15 00:13:16;;;;;;;;;;;;;;;;;;5029179;28;19936;-87
2021/09/15 00:15:46;;;;;;;;;;;;;;;;;;5031039;28;19925;-87
2021/09/15 00:18:14;;;;;;;;;;;;;;;;;;5020101;28;19929;-88
2021/09/15 00:20:42;;;;;;;;;;;;;;;;;;5014341;28;19947;-87
2021/09/15 00:23:10;;;;;;;;;;;;;;;;;;5033395;28;20592;-87
2021/09/15 00:25:39;;;;;;;;;;;;;;;;;;5016631;28;19925;-87
2021/09/15 00:28:10;;;;;;;;;;;;;;;;;;5014045;28;20491;-88
2021/09/15 00:30:38;;;;;;;;;;;;;;;;;;5047751;28;19932;-87
2021/09/15 00:33:08;;;;;;;;;;;;;;;;;;5044230;28;19924;-87
2021/09/15 00:35:37;;;;;;;;;;;;;;;;;;5016098;28;20375;-88
2021/09/15 00:38:06;;;;;;;;;;;;;;;;;;5031317;28;19925;-84
2021/09/15 00:40:34;;;;;;;;;;;;;;;;;;5041836;28;20117;-84
2021/09/15 00:43:02;;;;;;;;;;;;;;;;;;5038004;28;19925;-88
2021/09/15 00:45:31;;;;;;;;;;;;;;;;;;5036732;28;19925;-87
2021/09/15 00:48:00;;;;;;;;;;;;;;;;;;5036754;28;19925;-87
2021/09/15 00:50:31;;;;;;;;;;;;;;;;;;5037885;28;19932;-87
2021/09/15 00:53:00;;;;;;;;;;;;;;;;;;5052991;28;19925;-85
2021/09/15 00:55:29;;;;;;;;;;;;;;;;;;5008501;28;19925;-87
2021/09/15 00:57:58;;;;;;;;;;;;;;;;;;5034590;28;20402;-85
2021/09/15 01:00:28;;;;;;;;;;;;;;;;;;5015224;28;20427;-88
2021/09/15 01:02:58;;;;;;;;;;;;;;;;;;5021659;28;19939;-85
2021/09/15 01:05:28;;;;;;;;;;;;;;;;;;5021012;28;20314;-85
2021/09/15 01:08:01;;;;;;;;;;;;;;;;;;5037757;28;19925;-86
2021/09/15 01:10:31;;;;;;;;;;;;;;;;;;5032225;28;19944;-87
2021/09/15 01:13:13;;;;;;;;;;;;;;;;;;5018144;28;19932;-89
2021/09/15 01:16:05;;;;;;;;;;;;;;;;;;5032101;28;19925;-87
2021/09/15 01:18:53;;;;;;;;;;;;;;;;;;5034703;28;19931;-85
2021/09/15 01:21:28;;;;;;;;;;;;;;;;;;5036053;28;19925;-83
2021/09/15 01:24:17;;;;;;;;;;;;;;;;;;5036536;28;20414;-85
2021/09/15 01:27:08;;;;;;;;;;;;;;;;;;5033047;28;19956;-87
2021/09/15 01:29:49;;;;;;;;;;;;;;;;;;5040044;28;19925;-87
2021/09/15 01:32:26;;;;;;;;;;;;;;;;;;5032982;28;19932;-88
2021/09/15 01:34:55;;;;;;;;;;;;;;;;;;5027272;28;19932;-87
2021/09/15 01:37:28;;;;;;;;;;;;;;;;;;5031048;28;20303;-87
2021/09/15 01:40:00;;;;;;;;;;;;;;;;;;5032682;28;19931;-88
2021/09/15 01:42:32;;;;;;;;;;;;;;;;;;5041933;28;19931;-88
2021/09/15 01:45:04;;;;;;;;;;;;;;;;;;5045474;28;19931;-87
2021/09/15 01:47:33;;;;;;;;;;;;;;;;;;5024666;28;19925;-88
2021/09/15 01:50:01;;;;;;;;;;;;;;;;;;5024701;28;19932;-87
2021/09/15 01:52:31;;;;;;;;;;;;;;;;;;5030652;28;19952;-87
2021/09/15 01:55:04;;;;;;;;;;;;;;;;;;5014789;28;19924;-87
2021/09/15 01:57:33;;;;;;;;;;;;;;;;;;5040889;28;19925;-87
2021/09/15 02:00:23;;;;;;;;;;;;;;;;;;5007973;28;20597;-89
2021/09/15 02:03:10;;;;;;;;;;;;;;;;;;5029567;28;19925;-87
2021/09/15 02:05:53;;;;;;;;;;;;;;;;;;5046221;28;19940;-89
2021/09/15 02:08:32;;;;;;;;;;;;;;;;;;5010338;28;19929;-90
2021/09/15 02:11:15;;;;;;;;;;;;;;;;;;5015696;28;19978;-87
2021/09/15 02:13:44;;;;;;;;;;;;;;;;;;5033588;28;19925;-90
2021/09/15 02:16:13;;;;;;;;;;;;;;;;;;5023085;28;19939;-86
2021/09/15 02:18:41;;;;;;;;;;;;;;;;;;5027684;28;19931;-89
2021/09/15 02:21:28;;;;;;;;;;;;;;;;;;5028559;28;19931;-91
2021/09/15 02:24:17;;;;;;;;;;;;;;;;;;5027961;28;19929;-88
2021/09/15 02:27:00;;;;;;;;;;;;;;;;;;5062745;28;19940;-90
2021/09/15 02:29:31;;;;;;;;;;;;;;;;;;5031934;28;19932;-88
2021/09/15 02:32:13;;;;;;;;;;;;;;;;;;5033900;28;20414;-87
2021/09/15 02:35:01;;;;;;;;;;;;;;;;;;5029989;28;20334;-88
2021/09/15 02:37:49;;;;;;;;;;;;;;;;;;4991096;28;19925;-88
2021/09/15 02:40:38;;;;;;;;;;;;;;;;;;5024356;28;19929;-88
2021/09/15 02:43:17;;;;;;;;;;;;;;;;;;5013690;28;19932;-85
2021/09/15 02:46:04;;;;;;;;;;;;;;;;;;5022352;28;19936;-87
2021/09/15 02:48:53;;;;;;;;;;;;;;;;;;5049040;28;19925;-88
2021/09/15 02:51:31;;;;;;;;;;;;;;;;;;5031586;28;19947;-87
2021/09/15 02:54:09;;;;;;;;;;;;;;;;;;5019980;28;19932;-88
2021/09/15 02:56:47;;;;;;;;;;;;;;;;;;5033379;28;19925;-88
2021/09/15 02:59:25;;;;;;;;;;;;;;;;;;5032526;28;19931;-87
2021/09/15 03:02:04;;;;;;;;;;;;;;;;;;5012474;28;19932;-88
2021/09/15 03:04:56;;;;;;;;;;;;;;;;;;5026780;28;19932;-88
2021/09/15 03:07:53;;;;;;;;;;;;;;;;;;5030426;28;19924;-87
2021/09/15 03:10:22;;;;;;;;;;;;;;;;;;5020327;28;19933;-88
2021/09/15 03:12:52;;;;;;;;;;;;;;;;;;5015763;28;19925;-86
2021/09/15 03:15:20;;;;;;;;;;;;;;;;;;5032201;28;19933;-88
2021/09/15 03:17:48;;;;;;;;;;;;;;;;;;5013508;28;19925;-86
2021/09/15 03:20:17;;;;;;;;;;;;;;;;;;5029723;28;19925;-86
2021/09/15 03:22:45;;;;;;;;;;;;;;;;;;5012983;28;19925;-85
2021/09/15 03:25:13;;;;;;;;;;;;;;;;;;5016752;28;20329;-88
2021/09/15 03:27:41;;;;;;;;;;;;;;;;;;5039868;28;20211;-88
2021/09/15 03:30:11;;;;;;;;;;;;;;;;;;5047741;28;19925;-87
2021/09/15 03:32:40;;;;;;;;;;;;;;;;;;5029202;28;20415;-86
2021/09/15 03:35:10;;;;;;;;;;;;;;;;;;5029981;28;20410;-87
2021/09/15 03:37:39;;;;;;;;;;;;;;;;;;5015464;28;19925;-88
2021/09/15 03:40:08;;;;;;;;;;;;;;;;;;5027378;28;19937;-86
2021/09/15 03:42:36;;;;;;;;;;;;;;;;;;5007555;28;19936;-88
2021/09/15 03:45:05;;;;;;;;;;;;;;;;;;5009055;28;19928;-91
2021/09/15 03:47:35;;;;;;;;;;;;;;;;;;5009966;28;20314;-88
2021/09/15 03:50:04;;;;;;;;;;;;;;;;;;5023294;28;19943;-92
2021/09/15 03:52:32;;;;;;;;;;;;;;;;;;5039351;28;19933;-87
2021/09/15 03:55:01;;;;;;;;;;;;;;;;;;5008681;28;20319;-91
2021/09/15 03:57:29;;;;;;;;;;;;;;;;;;5011399;28;20299;-88
2021/09/15 03:59:57;;;;;;;;;;;;;;;;;;5028128;28;19948;-87
2021/09/15 04:02:30;;;;;;;;;;;;;;;;;;5042082;28;20394;-89
2021/09/15 04:05:00;;;;;;;;;;;;;;;;;;5020812;28;19925;-88
2021/09/15 04:07:30;;;;;;;;;;;;;;;;;;5053234;28;19925;-88
2021/09/15 04:09:58;;;;;;;;;;;;;;;;;;5007842;28;20310;-90
2021/09/15 04:12:27;;;;;;;;;;;;;;;;;;5012336;28;19932;-87
2021/09/15 04:14:55;;;;;;;;;;;;;;;;;;5013998;28;20306;-87
2021/09/15 04:17:23;;;;;;;;;;;;;;;;;;5047588;28;20475;-87
2021/09/15 04:19:52;;;;;;;;;;;;;;;;;;5013352;28;20306;-87
2021/09/15 04:22:22;;;;;;;;;;;;;;;;;;5016978;28;19925;-87
2021/09/15 04:33:19;;;;;;;;;;;;;;;;;;4986841;28;19924;-87
2021/09/15 04:35:48;;;;;;;;;;;;;;;;;;5014018;28;19933;-90
2021/09/15 04:38:18;;;;;;;;;;;;;;;;;;5043510;28;19931;-91
2021/09/15 04:40:46;;;;;;;;;;;;;;;;;;5057106;28;19933;-92
2021/09/15 04:43:15;;;;;;;;;;;;;;;;;;5027295;28;19924;-88
2021/09/15 04:45:44;;;;;;;;;;;;;;;;;;5030070;28;20407;-86
2021/09/15 04:48:15;;;;;;;;;;;;;;;;;;5018619;28;19925;-88
2021/09/15 04:50:43;;;;;;;;;;;;;;;;;;5017060;28;20001;-87
2021/09/15 04:53:12;;;;;;;;;;;;;;;;;;5040898;28;20262;-87
2021/09/15 04:55:41;;;;;;;;;;;;;;;;;;5016530;28;19947;-87
2021/09/15 04:58:10;;;;;;;;;;;;;;;;;;5015129;28;19925;-86
2021/09/15 05:00:39;;;;;;;;;;;;;;;;;;5011909;28;19967;-87
2021/09/15 05:03:11;;;;;;;;;;;;;;;;;;5015206;28;20131;-86
2021/09/15 05:05:42;;;;;;;;;;;;;;;;;;5015902;28;19932;-86
2021/09/15 05:08:15;;;;;;;;;;;;;;;;;;5033699;28;19948;-88
2021/09/15 05:10:45;;;;;;;;;;;;;;;;;;5029622;28;19925;-88
2021/09/15 05:13:15;;;;;;;;;;;;;;;;;;5040906;28;19931;-87
2021/09/15 05:15:44;;;;;;;;;;;;;;;;;;5018206;28;19925;-87
2021/09/15 05:18:12;;;;;;;;;;;;;;;;;;5053816;28;19940;-87
2021/09/15 05:20:41;;;;;;;;;;;;;;;;;;5047865;28;19933;-87
2021/09/15 05:23:10;;;;;;;;;;;;;;;;;;5034332;28;19941;-89
2021/09/15 05:25:38;;;;;;;;;;;;;;;;;;5052603;28;19925;-88
2021/09/15 05:28:11;;;;;;;;;;;;;;;;;;5027707;28;19932;-87
2021/09/15 05:30:40;;;;;;;;;;;;;;;;;;5013644;28;19932;-89
2021/09/15 05:33:09;;;;;;;;;;;;;;;;;;5005942;28;19928;-88
2021/09/15 05:35:39;;;;;;;;;;;;;;;;;;5028171;28;19924;-87
2021/09/15 05:38:11;;;;;;;;;;;;;;;;;;5022030;28;19928;-89
2021/09/15 05:40:59;;;;;;;;;;;;;;;;;;5020868;28;19936;-90
2021/09/15 05:43:29;;;;;;;;;;;;;;;;;;5033349;28;19943;-88
2021/09/15 05:45:57;;;;;;;;;;;;;;;;;;5036206;28;19932;-88
2021/09/15 05:48:26;;;;;;;;;;;;;;;;;;5021532;28;19925;-89
2021/09/15 05:50:54;;;;;;;;;;;;;;;;;;5016416;28;19935;-89
2021/09/15 05:53:23;;;;;;;;;;;;;;;;;;5057395;28;19936;-90
2021/09/15 05:55:52;;;;;;;;;;;;;;;;;;5013343;28;19925;-88
2021/09/15 05:58:21;;;;;;;;;;;;;;;;;;5041202;28;19925;-89
2021/09/15 06:00:50;;;;;;;;;;;;;;;;;;5049110;28;20406;-90
2021/09/15 06:03:20;;;;;;;;;;;;;;;;;;5017267;28;20406;-89
2021/09/15 06:05:57;;;;;;;;;;;;;;;;;;5008801;28;19924;-89
2021/09/15 06:08:26;;;;;;;;;;;;;;;;;;5042617;28;19925;-89
2021/09/15 06:10:56;;;;;;;;;;;;;;;;;;5028665;28;19925;-90
2021/09/15 06:13:24;;;;;;;;;;;;;;;;;;5006294;28;19932;-90
2021/09/15 06:15:55;;;;;;;;;;;;;;;;;;5007016;28;19936;-88
2021/09/15 06:18:26;;;;;;;;;;;;;;;;;;5014100;28;19932;-91
2021/09/15 06:21:22;;;;;;;;;;;;;;;;;;4995637;28;19924;-90
2021/09/15 06:24:03;;;;;;;;;;;;;;;;;;5012100;28;19924;-90
2021/09/15 06:26:32;;;;;;;;;;;;;;;;;;5015083;28;19932;-90
2021/09/15 06:29:01;;;;;;;;;;;;;;;;;;5039817;28;19936;-90
2021/09/15 06:31:31;;;;;;;;;;;;;;;;;;5044648;28;19925;-90
2021/09/15 06:33:59;;;;;;;;;;;;;;;;;;5008393;28;19925;-90
2021/09/15 06:36:29;;;;;;;;;;;;;;;;;;5038599;28;19948;-90
2021/09/15 06:38:59;;;;;;;;;;;;;;;;;;5049207;28;20398;-90
2021/09/15 06:41:27;;;;;;;;;;;;;;;;;;5036798;28;19932;-88
2021/09/15 06:43:55;;;;;;;;;;;;;;;;;;5044595;28;19932;-89
2021/09/15 06:46:24;;;;;;;;;;;;;;;;;;5031103;28;19929;-89
2021/09/15 06:48:54;;;;;;;;;;;;;;;;;;5015314;28;20298;-91
2021/09/15 06:51:22;;;;;;;;;;;;;;;;;;5015878;28;19926;-87
2021/09/15 06:53:51;;;;;;;;;;;;;;;;;;5030402;28;20409;-89
2021/09/15 06:56:19;;;;;;;;;;;;;;;;;;5013587;28;19925;-89
2021/09/15 06:58:48;;;;;;;;;;;;;;;;;;5015294;28;20531;-88
2021/09/15 07:01:17;;;;;;;;;;;;;;;;;;5028736;28;20310;-90
2021/09/15 07:03:45;;;;;;;;;;;;;;;;;;5020508;28;19920;-92
2021/09/15 07:06:15;;;;;;;;;;;;;;;;;;5056651;28;19925;-92
2021/09/15 07:08:43;;;;;;;;;;;;;;;;;;5043618;28;20294;-89
2021/09/15 07:11:12;;;;;;;;;;;;;;;;;;5031099;28;20319;-88
2021/09/15 07:13:40;;;;;;;;;;;;;;;;;;5047149;28;20371;-87
2021/09/15 07:16:08;;;;;;;;;;;;;;;;;;5013462;28;21309;-89
2021/09/15 07:18:37;;;;;;;;;;;;;;;;;;5029641;28;19940;-90
2021/09/15 07:21:05;;;;;;;;;;;;;;;;;;5027626;28;20306;-88
2021/09/15 07:23:35;;;;;;;;;;;;;;;;;;5014513;28;19932;-87
2021/09/15 07:26:03;;;;;;;;;;;;;;;;;;5009201;28;19928;-89
2021/09/15 07:28:31;;;;;;;;;;;;;;;;;;5028418;28;19924;-87
2021/09/15 07:31:01;;;;;;;;;;;;;;;;;;5009557;28;20200;-89
2021/09/15 07:33:37;;;;;;;;;;;;;;;;;;5016129;28;20203;-90
2021/09/15 07:36:11;;;;;;;;;;;;;;;;;;5024294;28;19928;-88
2021/09/15 07:38:40;;;;;;;;;;;;;;;;;;5006400;28;19933;-89
2021/09/15 07:41:10;;;;;;;;;;;;;;;;;;5044220;28;20287;-88
2021/09/15 07:43:39;;;;;;;;;;;;;;;;;;5024188;28;19932;-88
2021/09/15 07:46:07;;;;;;;;;;;;;;;;;;5046869;28;20410;-88
2021/09/15 07:48:35;;;;;;;;;;;;;;;;;;5032598;28;19933;-88
2021/09/15 07:51:04;;;;;;;;;;;;;;;;;;5011074;28;19925;-88
2021/09/15 07:53:32;;;;;;;;;;;;;;;;;;5057327;28;19933;-88
2021/09/15 07:56:02;;;;;;;;;;;;;;;;;;5014175;28;19929;-88
2021/09/15 07:58:30;;;;;;;;;;;;;;;;;;5015252;28;20516;-87
2021/09/15 08:00:58;;;;;;;;;;;;;;;;;;5029018;28;19951;-88
2021/09/15 08:03:27;;;;;;;;;;;;;;;;;;5019459;28;20295;-88
2021/09/15 08:05:57;;;;;;;;;;;;;;;;;;5012919;28;20287;-86
2021/09/15 08:08:25;;;;;;;;;;;;;;;;;;5014268;28;19925;-88
2021/09/15 08:10:54;;;;;;;;;;;;;;;;;;5025448;28;19932;-88
2021/09/15 08:13:25;;;;;;;;;;;;;;;;;;5008518;28;19925;-88
2021/09/15 08:15:53;;;;;;;;;;;;;;;;;;5041507;28;19925;-88
2021/09/15 08:18:22;;;;;;;;;;;;;;;;;;5007321;28;19952;-87
2021/09/15 08:20:59;;;;;;;;;;;;;;;;;;5025627;28;19936;-89
2021/09/15 08:23:27;;;;;;;;;;;;;;;;;;5022252;28;20311;-88
2021/09/15 08:25:56;;;;;;;;;;;;;;;;;;5051029;28;20399;-88
2021/09/15 08:28:26;;;;;;;;;;;;;;;;;;5007918;28;19932;-87
2021/09/15 08:30:55;;;;;;;;;;;;;;;;;;5014256;28;19932;-88
2021/09/15 08:33:23;;;;;;;;;;;;;;;;;;5013237;28;19925;-88
2021/09/15 08:35:51;;;;;;;;;;;;;;;;;;5030214;28;19928;-88
2021/09/15 08:38:20;;;;;;;;;;;;;;;;;;5005482;28;19932;-88
2021/09/15 08:40:49;;;;;;;;;;;;;;;;;;5026738;28;20407;-87
2021/09/15 08:43:18;;;;;;;;;;;;;;;;;;5027475;28;19932;-89
2021/09/15 08:45:51;;;;;;;;;;;;;;;;;;5027526;28;19947;-87
2021/09/15 08:48:29;;;;;;;;;;;;;;;;;;5010951;28;20280;-87
2021/09/15 08:50:59;;;;;;;;;;;;;;;;;;5041922;28;20188;-88
2021/09/15 08:53:29;;;;;;;;;;;;;;;;;;5021452;28;19939;-88
2021/09/15 08:55:59;;;;;;;;;;;;;;;;;;5044438;28;19924;-88
2021/09/15 08:58:30;;;;;;;;;;;;;;;;;;5033531;28;19932;-88
2021/09/15 09:01:08;;;;;;;;;;;;;;;;;;5035045;28;19936;-88
2021/09/15 09:03:38;;;;;;;;;;;;;;;;;;5031292;28;20306;-88
2021/09/15 09:06:10;;;;;;;;;;;;;;;;;;5014063;28;19932;-88
2021/09/15 09:08:40;;;;;;;;;;;;;;;;;;5027125;28;20418;-89
2021/09/15 09:11:08;;;;;;;;;;;;;;;;;;5045399;28;19935;-88
2021/09/15 09:13:46;;;;;;;;;;;;;;;;;;5014418;28;19925;-87
2021/09/15 09:16:18;;;;;;;;;;;;;;;;;;5033250;28;19929;-88
2021/09/15 09:18:56;;;;;;;;;;;;;;;;;;5010395;28;19929;-88
2021/09/15 09:21:26;;;;;;;;;;;;;;;;;;5046499;28;19925;-88
2021/09/15 09:23:58;;;;;;;;;;;;;;;;;;5035717;28;19929;-88
2021/09/15 09:26:41;;;;;;;;;;;;;;;;;;5037385;28;20306;-87
2021/09/15 09:29:11;;;;;;;;;;;;;;;;;;5024821;28;20295;-87
2021/09/15 09:31:41;;;;;;;;;;;;;;;;;;5065693;28;19921;-87
2021/09/15 09:34:09;;;;;;;;;;;;;;;;;;5054682;28;19929;-87
2021/09/15 09:36:37;;;;;;;;;;;;;;;;;;5044809;28;19925;-87
2021/09/15 09:39:12;;;;;;;;;;;;;;;;;;5017815;28;19925;-88
2021/09/15 09:41:41;;;;;;;;;;;;;;;;;;5026881;28;19925;-87
2021/09/15 09:44:10;;;;;;;;;;;;;;;;;;5031510;28;19936;-88
2021/09/15 09:46:41;;;;;;;;;;;;;;;;;;5020557;28;19929;-88
2021/09/15 09:49:20;;;;;;;;;;;;;;;;;;5035055;28;20306;-87
2021/09/15 09:51:48;;;;;;;;;;;;;;;;;;5038738;28;19935;-88
2021/09/15 09:54:21;;;;;;;;;;;;;;;;;;5015950;28;19925;-88
2021/09/15 09:56:53;;;;;;;;;;;;;;;;;;5033666;28;19925;-88
2021/09/15 09:59:25;;;;;;;;;;;;;;;;;;5038894;28;19933;-88
2021/09/15 10:01:58;;;;;;;;;;;;;;;;;;5049784;28;19924;-87
2021/09/15 10:04:28;;;;;;;;;;;;;;;;;;5047475;28;20301;-89
2021/09/15 10:07:02;;;;;;;;;;;;;;;;;;5029131;28;19933;-89
2021/09/15 10:09:37;;;;;;;;;;;;;;;;;;5019420;28;19936;-88
2021/09/15 10:12:06;;;;;;;;;;;;;;;;;;5043971;28;19932;-89
2021/09/15 10:14:36;;;;;;;;;;;;;;;;;;5044145;28;19933;-88
2021/09/15 10:17:08;;;;;;;;;;;;;;;;;;5027509;28;19932;-88
2021/09/15 10:19:39;;;;;;;;;;;;;;;;;;5011019;28;20307;-87
2021/09/15 10:22:08;;;;;;;;;;;;;;;;;;5024524;28;19925;-87
2021/09/15 10:24:53;;;;;;;;;;;;;;;;;;5042246;28;19925;-87
2021/09/15 10:27:22;;;;;;;;;;;;;;;;;;5020629;28;19929;-87
2021/09/15 10:30:06;;;;;;;;;;;;;;;;;;5039889;28;19933;-86
2021/09/15 10:32:37;;;;;;;;;;;;;;;;;;5040632;28;19940;-86
2021/09/15 10:35:06;;;;;;;;;;;;;;;;;;5017682;28;19932;-86
2021/09/15 10:37:53;;;;;;;;;;;;;;;;;;5013847;28;19925;-86
2021/09/15 10:40:32;;;;;;;;;;;;;;;;;;5041139;28;19925;-86
2021/09/15 10:43:01;;;;;;;;;;;;;;;;;;5027815;28;19936;-85
2021/09/15 10:45:30;;;;;;;;;;;;;;;;;;5020044;28;19933;-85
2021/09/15 10:48:01;;;;;;;;;;;;;;;;;;5018656;28;19929;-86
2021/09/15 10:50:49;;;;;;;;;;;;;;;;;;5013258;28;19925;-86
2021/09/15 10:53:22;;;;;;;;;;;;;;;;;;5032404;28;19932;-86
2021/09/15 10:55:53;;;;;;;;;;;;;;;;;;5046213;28;19928;-86
2021/09/15 10:58:24;;;;;;;;;;;;;;;;;;5010667;28;19932;-87
2021/09/15 11:00:53;;;;;;;;;;;;;;;;;;5025704;28;19932;-87
2021/09/15 11:03:30;;;;;;;;;;;;;;;;;;5027095;28;19940;-87
2021/09/15 11:05:59;;;;;;;;;;;;;;;;;;5046596;28;19925;-86
2021/09/15 11:08:36;;;;;;;;;;;;;;;;;;5027143;28;19940;-85
2021/09/15 11:11:05;;;;;;;;;;;;;;;;;;5032990;28;19924;-86
2021/09/15 11:13:48;;;;;;;;;;;;;;;;;;5044010;28;19925;-83
2021/09/15 11:16:24;;;;;;;;;;;;;;;;;;5015933;28;19936;-85
2021/09/15 11:18:58;;;;;;;;;;;;;;;;;;5029474;28;19924;-86
2021/09/15 11:21:28;;;;;;;;;;;;;;;;;;5028552;28;20377;-86
2021/09/15 11:23:57;;;;;;;;;;;;;;;;;;5019848;28;19925;-86
2021/09/15 11:26:39;;;;;;;;;;;;;;;;;;5021287;28;19925;-84
2021/09/15 11:29:07;;;;;;;;;;;;;;;;;;5040808;28;19931;-85
2021/09/15 11:31:36;;;;;;;;;;;;;;;;;;5048772;28;19940;-84
2021/09/15 11:34:08;;;;;;;;;;;;;;;;;;5053761;28;19924;-86
2021/09/15 11:36:37;;;;;;;;;;;;;;;;;;5028011;28;19932;-86
2021/09/15 11:39:07;;;;;;;;;;;;;;;;;;5018134;28;19932;-86
2021/09/15 11:41:35;;;;;;;;;;;;;;;;;;5034495;28;19929;-85
2021/09/15 11:44:04;;;;;;;;;;;;;;;;;;5037461;28;19935;-87
2021/09/15 11:46:40;;;;;;;;;;;;;;;;;;5032919;28;19925;-87
2021/09/15 11:49:42;;;;;;;;;;;;;;;;;;5022548;28;20342;-88
2021/09/15 11:52:38;;;;;;;;;;;;;;;;;;5006408;28;19928;-88
2021/09/15 11:55:15;;;;;;;;;;;;;;;;;;5040698;28;19925;-87
2021/09/15 11:57:51;;;;;;;;;;;;;;;;;;5059170;28;19913;-86
2021/09/15 12:00:34;;;;;;;;;;;;;;;;;;5029000;28;19940;-88
2021/09/15 12:03:16;;;;;;;;;;;;;;;;;;5028021;28;20559;-88
2021/09/15 12:06:02;;;;;;;;;;;;;;;;;;5017328;28;20427;-88
2021/09/15 12:08:41;;;;;;;;;;;;;;;;;;5016611;28;20693;-86
2021/09/15 12:11:15;;;;;;;;;;;;;;;;;;5036009;28;19925;-86
2021/09/15 12:13:46;;;;;;;;;;;;;;;;;;5062947;22;19932;-90
2021/09/15 12:16:26;;;;;;;;;;;;;;;;;;5037344;28;19925;-90
2021/09/15 12:18:54;;;;;;;;;;;;;;;;;;5022906;28;19929;-90
2021/09/15 12:21:24;;;;;;;;;;;;;;;;;;5041706;28;19925;-89
2021/09/15 12:23:53;;;;;;;;;;;;;;;;;;5025675;28;19940;-92
2021/09/15 12:26:24;;;;;;;;;;;;;;;;;;5045544;28;19932;-90
2021/09/15 12:29:00;;;;;;;;;;;;;;;;;;5030229;28;19925;-90
2021/09/15 12:31:38;;;;;;;;;;;;;;;;;;5048536;28;20382;-90
2021/09/15 12:34:06;;;;;;;;;;;;;;;;;;5052952;28;20401;-90
2021/09/15 12:36:36;;;;;;;;;;;;;;;;;;5052889;28;19928;-89
2021/09/15 12:39:10;;;;;;;;;;;;;;;;;;5032384;28;19932;-89
2021/09/15 12:41:59;;;;;;;;;;;;;;;;;;5027584;28;20290;-89
2021/09/15 12:44:32;;;;;;;;;;;;;;;;;;5025960;28;20294;-87
2021/09/15 12:47:04;;;;;;;;;;;;;;;;;;5043915;28;19932;-89
2021/09/15 12:49:33;;;;;;;;;;;;;;;;;;5061855;22;20162;-86
2021/09/15 12:52:07;;;;;;;;;;;;;;;;;;5071577;28;19931;-87
2021/09/15 12:54:37;;;;;;;;;;;;;;;;;;5057435;28;19932;-86
2021/09/15 12:57:16;;;;;;;;;;;;;;;;;;5074710;28;19924;-84
2021/09/15 12:59:45;;;;;;;;;;;;;;;;;;5055573;28;20310;-86
2021/09/15 13:02:18;;;;;;;;;;;;;;;;;;5069921;28;19924;-85
2021/09/15 13:04:48;;;;;;;;;;;;;;;;;;5043198;28;19928;-87
2021/09/15 13:07:21;;;;;;;;;;;;;;;;;;5075892;28;19935;-86
2021/09/15 13:09:54;;;;;;;;;;;;;;;;;;5055932;28;20402;-86
2021/09/15 13:12:24;;;;;;;;;;;;;;;;;;5061596;28;19928;-87
2021/09/15 13:14:56;;;;;;;;;;;;;;;;;;5073952;28;19931;-87
2021/09/15 13:17:26;;;;;;;;;;;;;;;;;;5061384;28;20313;-87
2021/09/15 13:19:55;;;;;;;;;;;;;;;;;;5073838;28;20310;-87
2021/09/15 13:22:29;;;;;;;;;;;;;;;;;;5054693;28;19924;-87
2021/09/15 13:25:01;;;;;;;;;;;;;;;;;;5060700;28;19924;-87
2021/09/15 13:27:33;;;;;;;;;;;;;;;;;;5086661;28;20108;-87
2021/09/15 13:30:12;;;;;;;;;;;;;;;;;;5077891;28;19924;-88
2021/09/15 13:32:46;;;;;;;;;;;;;;;;;;5075280;28;19931;-87
2021/09/15 13:35:22;;;;;;;;;;;;;;;;;;5064598;28;19928;-88
2021/09/15 13:38:10;;;;;;;;;;;;;;;;;;5057998;28;19924;-88
2021/09/15 13:40:54;;;;;;;;;;;;;;;;;;5059554;28;19924;-87
2021/09/15 13:43:34;;;;;;;;;;;;;;;;;;5062322;28;20271;-87
2021/09/15 13:46:18;;;;;;;;;;;;;;;;;;5069336;28;19925;-88
2021/09/15 13:49:07;;;;;;;;;;;;;;;;;;5063068;28;19931;-88
2021/09/15 13:51:56;;;;;;;;;;;;;;;;;;5075039;28;20382;-87
2021/09/15 13:54:51;;;;;;;;;;;;;;;;;;5077103;28;20287;-88
2021/09/15 13:57:24;;;;;;;;;;;;;;;;;;5062191;28;19924;-88
2021/09/15 13:59:53;;;;;;;;;;;;;;;;;;5063058;28;19931;-88
2021/09/15 14:02:23;;;;;;;;;;;;;;;;;;5059302;28;19924;-87
2021/09/15 14:04:53;;;;;;;;;;;;;;;;;;5066746;28;19931;-88
2021/09/15 14:07:24;;;;;;;;;;;;;;;;;;5062091;28;19940;-87
2021/09/15 14:09:57;;;;;;;;;;;;;;;;;;5063120;28;20310;-87
2021/09/15 14:12:47;;;;;;;;;;;;;;;;;;5068915;28;19991;-87
2021/09/15 14:15:17;;;;;;;;;;;;;;;;;;5063426;28;19924;-87
2021/09/15 14:17:46;;;;;;;;;;;;;;;;;;5060532;28;19928;-87
2021/09/15 14:20:15;;;;;;;;;;;;;;;;;;5064498;28;20389;-87
2021/09/15 14:22:45;;;;;;;;;;;;;;;;;;5076335;28;19939;-87
2021/09/15 14:25:16;;;;;;;;;;;;;;;;;;5083507;28;19924;-87
2021/09/15 14:27:45;;;;;;;;;;;;;;;;;;5077717;28;19931;-87
2021/09/15 14:30:16;;;;;;;;;;;;;;;;;;5064646;28;19934;-88
2021/09/15 14:32:45;;;;;;;;;;;;;;;;;;5052119;28;19935;-88
2021/09/15 14:35:15;;;;;;;;;;;;;;;;;;5058759;28;20513;-87
2021/09/15 14:37:45;;;;;;;;;;;;;;;;;;5080648;28;19998;-88
2021/09/15 14:40:14;;;;;;;;;;;;;;;;;;5082216;28;19925;-87
2021/09/15 14:42:44;;;;;;;;;;;;;;;;;;5077601;28;19931;-89
2021/09/15 14:45:14;;;;;;;;;;;;;;;;;;5067096;28;19990;-86
2021/09/15 14:47:43;;;;;;;;;;;;;;;;;;5062891;28;19931;-90
2021/09/15 14:50:13;;;;;;;;;;;;;;;;;;5062568;28;19924;-89
2021/09/15 14:52:42;;;;;;;;;;;;;;;;;;5060430;28;19924;-86
2021/09/15 14:55:11;;;;;;;;;;;;;;;;;;5076730;28;19928;-88
2021/09/15 14:57:45;;;;;;;;;;;;;;;;;;5065423;28;19924;-87
2021/09/15 15:00:14;;;;;;;;;;;;;;;;;;5070402;28;19935;-87
2021/09/15 15:02:46;;;;;;;;;;;;;;;;;;5083569;28;20354;-87
2021/09/15 15:05:19;;;;;;;;;;;;;;;;;;5056005;28;19925;-90
2021/09/15 15:07:49;;;;;;;;;;;;;;;;;;5084528;28;19924;-86
2021/09/15 15:10:18;;;;;;;;;;;;;;;;;;5084137;28;19928;-86
2021/09/15 15:12:50;;;;;;;;;;;;;;;;;;5062753;28;19924;-87
2021/09/15 15:15:21;;;;;;;;;;;;;;;;;;5067348;28;20326;-88
2021/09/15 15:17:50;;;;;;;;;;;;;;;;;;5070270;28;19928;-87
2021/09/15 15:20:19;;;;;;;;;;;;;;;;;;5056644;28;19929;-89
2021/09/15 15:22:50;;;;;;;;;;;;;;;;;;5064125;28;19942;-88
2021/09/15 15:25:19;;;;;;;;;;;;;;;;;;5071786;28;19924;-87
2021/09/15 15:27:53;;;;;;;;;;;;;;;;;;5059637;28;19928;-87
2021/09/15 15:30:25;;;;;;;;;;;;;;;;;;5073426;28;19924;-87
2021/09/15 15:32:56;;;;;;;;;;;;;;;;;;5064029;28;20400;-89
2021/09/15 15:35:28;;;;;;;;;;;;;;;;;;5076293;28;19939;-90
2021/09/15 15:38:00;;;;;;;;;;;;;;;;;;5069826;28;19924;-89
2021/09/15 15:40:38;;;;;;;;;;;;;;;;;;5054485;28;20374;-90
2021/09/15 15:43:11;;;;;;;;;;;;;;;;;;5058295;28;19931;-89
2021/09/15 15:45:48;;;;;;;;;;;;;;;;;;5043159;28;19932;-89
2021/09/15 15:48:20;;;;;;;;;;;;;;;;;;5062983;28;19924;-87
2021/09/15 15:50:51;;;;;;;;;;;;;;;;;;5055677;28;19935;-88
2021/09/15 15:53:23;;;;;;;;;;;;;;;;;;5058122;28;20182;-88
2021/09/15 15:55:55;;;;;;;;;;;;;;;;;;5071221;28;19924;-90
2021/09/15 15:58:28;;;;;;;;;;;;;;;;;;5080932;28;19931;-90
2021/09/15 16:00:59;;;;;;;;;;;;;;;;;;5087484;28;19924;-92
2021/09/15 16:03:29;;;;;;;;;;;;;;;;;;5091811;28;19924;-89
2021/09/15 16:06:00;;;;;;;;;;;;;;;;;;5068591;28;19931;-88
2021/09/15 16:08:29;;;;;;;;;;;;;;;;;;5056422;28;19924;-90
2021/09/15 16:10:58;;;;;;;;;;;;;;;;;;5053732;28;19923;-89
2021/09/15 16:13:30;;;;;;;;;;;;;;;;;;5052355;28;19925;-87
2021/09/15 16:16:03;;;;;;;;;;;;;;;;;;5054540;28;19932;-89
2021/09/15 16:18:36;;;;;;;;;;;;;;;;;;5049578;28;19928;-89
2021/09/15 16:21:07;;;;;;;;;;;;;;;;;;5055320;28;19946;-89
2021/09/15 16:23:38;;;;;;;;;;;;;;;;;;5067877;28;19931;-89
2021/09/15 16:26:20;;;;;;;;;;;;;;;;;;5076871;28;19931;-89
2021/09/15 16:29:22;;;;;;;;;;;;;;;;;;5076019;28;19935;-88
2021/09/15 16:32:40;;;;;;;;;;;;;;;;;;5048371;28;20390;-88
2021/09/15 16:35:56;;;;;;;;;;;;;;;;;;5060724;28;20305;-87
2021/09/15 16:38:33;;;;;;;;;;;;;;;;;;5068358;28;19928;-89
2021/09/15 16:41:11;;;;;;;;;;;;;;;;;;5072437;28;19924;-89
2021/09/15 16:43:48;;;;;;;;;;;;;;;;;;5067919;28;19924;-86
2021/09/15 16:46:22;;;;;;;;;;;;;;;;;;5064590;28;19928;-89
2021/09/15 16:48:55;;;;;;;;;;;;;;;;;;5053453;28;19924;-89
2021/09/15 16:52:00;;;;;;;;;;;;;;;;;;5084809;28;19908;-91
2021/09/15 16:54:29;;;;;;;;;;;;;;;;;;5063952;28;19925;-89
2021/09/15 16:57:01;;;;;;;;;;;;;;;;;;5052878;28;19947;-87
2021/09/15 16:59:39;;;;;;;;;;;;;;;;;;5053225;28;19932;-89
2021/09/15 17:02:09;;;;;;;;;;;;;;;;;;5060353;28;19924;-88
2021/09/15 17:04:38;;;;;;;;;;;;;;;;;;5081284;28;19931;-90
2021/09/15 17:07:07;;;;;;;;;;;;;;;;;;5073088;28;19920;-91
2021/09/15 17:09:36;;;;;;;;;;;;;;;;;;5065742;28;19931;-91
2021/09/15 17:12:06;;;;;;;;;;;;;;;;;;5062181;28;19938;-91
2021/09/15 17:14:36;;;;;;;;;;;;;;;;;;5053103;28;19935;-86
2021/09/15 17:17:16;;;;;;;;;;;;;;;;;;5055488;28;19971;-87
2021/09/15 17:19:45;;;;;;;;;;;;;;;;;;5077831;28;19924;-87
2021/09/15 17:22:16;;;;;;;;;;;;;;;;;;5058389;28;19935;-89
2021/09/15 17:24:50;;;;;;;;;;;;;;;;;;5056534;28;19924;-89
2021/09/15 17:27:18;;;;;;;;;;;;;;;;;;5060751;28;19928;-89
2021/09/15 17:29:47;;;;;;;;;;;;;;;;;;5051687;28;19931;-89
2021/09/15 17:32:19;;;;;;;;;;;;;;;;;;5061968;28;19974;-89